KHRT

Hurlburt Field Airport

Mary Esther, Florida, USA
METAR KHRT 151445Z AUTO 14007KT 10SM FEW016 30/23 A3006 RMK AO2 RAB14E15 SLP181 $
Observed Flight Rules
Aug-15 @ 14:45 UTC (16 minutes ago) Visual Flight Rules
Wind Visibility Clouds
140° at 7 knots 10 miles
  • Few at 1,600' AGL
Temperatures Readings
Current 30°C / 86°F
Dewpoint 23°C / 73°F
Humidity 66%
Altimeter 30.06" Hg
Pressure 1018.1 hPa
Elevation 12
METAR KHRT 151445Z AUTO 14007KT 10SM FEW016 30/23 A3006 RMK AO2 RAB14E15 SLP181 $
Observed Flight Rules
Aug-15 @ 14:45 UTC
(16 minutes ago)
VFR
Wind Visibility
140° at 7 knots 10 miles
Clouds
  • Few at 1,600' AGL
Temperature Dewpoint
30°C / 86°F 23°C / 73°F
Humidity Altimeter Pressure
66% 30.06" Hg 1018.1 hPa